createdAt,value
2022-12-17T13:41:09.864Z,17.77
2022-12-17T14:12:25.812Z,17.40
2022-12-17T15:55:16.208Z,17.03
2022-12-17T16:00:12.149Z,17.27
2022-12-17T16:05:06.995Z,17.53
2022-12-17T16:10:04.788Z,17.17
2022-12-17T16:15:03.743Z,16.17
2022-12-17T16:20:12.141Z,16.20
2022-12-17T16:25:06.581Z,17.10
2022-12-17T16:30:01.297Z,15.57
2022-12-17T16:34:54.647Z,15.80
2022-12-17T16:39:48.034Z,16.50
2022-12-17T16:44:41.426Z,16.70
2022-12-17T16:49:36.192Z,16.83
2022-12-17T16:54:33.751Z,17.37
2022-12-17T16:59:27.140Z,19.27
2022-12-17T17:04:23.763Z,21.67
2022-12-17T17:09:20.226Z,21.20
2022-12-17T17:14:13.683Z,23.60
2022-12-17T17:19:08.037Z,22.90
2022-12-17T17:24:04.325Z,21.87
2022-12-17T17:29:00.660Z,23.40
2022-12-17T17:33:55.373Z,22.07
2022-12-17T17:38:51.237Z,20.60
2022-12-17T17:43:45.392Z,20.47
2022-12-17T17:48:40.773Z,21.67
2022-12-17T17:53:34.415Z,22.47
2022-12-17T17:58:27.815Z,23.10
2022-12-17T18:03:21.196Z,22.83
2022-12-17T18:08:16.020Z,24.80
2022-12-17T18:13:27.848Z,24.13
2022-12-17T18:18:21.181Z,23.87
2022-12-17T18:23:15.911Z,22.90
2022-12-17T18:28:09.385Z,22.30
2022-12-17T18:33:02.678Z,23.03
2022-12-17T18:37:56.036Z,23.00
2022-12-17T18:43:08.342Z,25.17
2022-12-17T18:48:01.694Z,25.27
2022-12-17T18:52:55.042Z,24.37
2022-12-17T18:57:48.385Z,26.40
2022-12-17T20:47:48.644Z,26.73
2022-12-17T21:26:08.705Z,26.23
2022-12-17T23:16:57.088Z,28.10
2022-12-17T23:41:45.528Z,26.77
